createdAt,value
2022-12-11T00:02:15.185Z,-0.95
2022-12-11T00:04:42.906Z,-0.96
2022-12-11T00:07:11.849Z,-0.88
2022-12-11T00:09:39.602Z,-0.96
2022-12-11T00:12:07.645Z,-1.04
2022-12-11T00:14:35.246Z,-1.03
2022-12-11T00:17:02.888Z,-0.98
2022-12-11T00:19:30.768Z,-0.97
2022-12-11T00:21:58.316Z,-0.91
2022-12-11T00:24:27.178Z,-0.94
2022-12-11T00:26:54.714Z,-0.95
2022-12-11T00:29:22.224Z,-0.93
2022-12-11T00:31:49.885Z,-0.92
2022-12-11T00:34:17.500Z,-0.88
2022-12-11T00:36:45.019Z,-0.96
2022-12-11T00:39:12.586Z,-0.94
2022-12-11T00:41:41.491Z,-0.95
2022-12-11T00:44:09.043Z,-1.07
2022-12-11T00:46:36.607Z,-0.98
2022-12-11T00:49:04.182Z,-1.05
2022-12-11T00:51:31.765Z,-1.04
2022-12-11T00:53:59.362Z,-1.02
2022-12-11T00:56:26.884Z,-0.98
2022-12-11T00:58:55.781Z,-1.00
2022-12-11T01:01:26.052Z,-0.91
2022-12-11T01:03:54.342Z,-0.91
2022-12-11T01:06:24.171Z,-0.83
2022-12-11T01:09:13.194Z,-0.81
2022-12-11T01:11:41.883Z,-0.76
2022-12-11T01:14:11.719Z,-0.77
2022-12-11T01:16:39.445Z,-0.83
2022-12-11T01:19:07.211Z,-0.86
2022-12-11T01:21:34.745Z,-0.89
2022-12-11T01:24:02.318Z,-0.90
2022-12-11T01:26:30.608Z,-0.88
2022-12-11T01:28:58.268Z,-0.92
2022-12-11T01:31:27.289Z,-0.79
2022-12-11T01:33:55.123Z,-0.77
2022-12-11T01:36:24.172Z,-0.86
2022-12-11T01:38:53.512Z,-0.92
2022-12-11T01:41:22.036Z,-0.88
2022-12-11T01:44:02.934Z,-0.86
2022-12-11T01:46:33.711Z,-0.83
2022-12-11T01:49:03.467Z,-0.86
2022-12-11T01:51:34.355Z,-0.87
2022-12-11T01:54:07.942Z,-0.86
2022-12-11T01:56:37.901Z,-0.91
2022-12-11T01:59:08.799Z,-0.80
2022-12-11T02:01:40.877Z,-0.81
2022-12-11T02:04:10.855Z,-0.87
2022-12-11T02:06:40.225Z,-0.90
2022-12-11T02:09:11.418Z,-0.86
2022-12-11T02:11:48.382Z,-0.81
2022-12-11T02:14:25.096Z,-0.86
2022-12-11T02:17:00.805Z,-0.94
2022-12-11T02:19:46.375Z,-0.93
2022-12-11T02:22:23.359Z,-0.96
2022-12-11T02:25:03.949Z,-0.99
2022-12-11T02:27:41.833Z,-0.90
2022-12-11T02:30:14.383Z,-0.85
2022-12-11T02:32:46.244Z,-0.81
2022-12-11T02:35:19.114Z,-0.85
2022-12-11T02:37:48.705Z,-0.79
2022-12-11T02:40:25.767Z,-0.82
2022-12-11T02:42:57.333Z,-0.80
2022-12-11T02:45:29.060Z,-0.77
2022-12-11T02:47:58.645Z,-0.71
2022-12-11T02:50:27.669Z,-0.79
2022-12-11T02:52:58.375Z,-0.80
2022-12-11T02:55:27.822Z,-0.76
2022-12-11T02:58:03.239Z,-0.84
2022-12-11T03:00:32.291Z,-0.89
2022-12-11T03:03:00.004Z,-0.93
2022-12-11T03:05:28.471Z,-1.01
2022-12-11T03:07:56.066Z,-1.09
2022-12-11T03:10:24.389Z,-1.15
2022-12-11T03:12:54.400Z,-1.09
2022-12-11T03:15:27.018Z,-1.10
2022-12-11T03:18:05.154Z,-1.18
2022-12-11T03:20:37.917Z,-1.14
2022-12-11T03:23:16.422Z,-1.17
2022-12-11T03:25:51.542Z,-1.15
2022-12-11T03:28:23.717Z,-1.09
2022-12-11T03:30:54.391Z,-1.08
2022-12-11T03:33:27.539Z,-1.13
2022-12-11T03:35:57.961Z,-1.05
2022-12-11T03:38:32.987Z,-1.13
2022-12-11T03:41:03.261Z,-1.06
2022-12-11T03:43:32.666Z,-1.05
2022-12-11T03:46:01.591Z,-1.10
2022-12-11T03:48:35.191Z,-1.12
2022-12-11T03:51:06.563Z,-1.12
2022-12-11T03:53:35.298Z,-1.09
2022-12-11T03:56:05.072Z,-1.06
2022-12-11T03:58:33.211Z,-1.04
2022-12-11T04:01:00.876Z,-1.01
2022-12-11T04:03:29.778Z,-1.02
2022-12-11T04:05:57.961Z,-1.05
2022-12-11T04:08:25.582Z,-1.06
2022-12-11T04:11:13.889Z,-1.04
2022-12-11T04:13:42.714Z,-1.02
2022-12-11T04:16:09.901Z,-1.05
2022-12-11T04:18:55.423Z,-1.07
2022-12-11T04:21:40.779Z,-1.07
2022-12-11T04:24:17.405Z,-1.04
2022-12-11T04:26:46.083Z,-0.97
2022-12-11T04:29:13.903Z,-0.97
2022-12-11T04:31:41.521Z,-1.03
2022-12-11T04:34:10.423Z,-1.00
2022-12-11T04:36:38.256Z,-1.01
2022-12-11T04:39:06.855Z,-1.09
2022-12-11T04:41:35.031Z,-1.07
2022-12-11T04:44:02.697Z,-1.13
2022-12-11T04:46:30.357Z,-1.24
2022-12-11T04:48:58.158Z,-1.18
2022-12-11T04:51:27.529Z,-1.15
2022-12-11T04:53:55.692Z,-1.15
2022-12-11T04:56:23.365Z,-1.15
2022-12-11T04:58:51.102Z,-1.13
2022-12-11T05:01:21.304Z,-1.16
2022-12-11T05:03:49.423Z,-1.27
2022-12-11T05:06:17.033Z,-1.25
2022-12-11T05:08:46.239Z,-1.30
2022-12-11T05:11:16.003Z,-1.16
2022-12-11T05:13:44.089Z,-1.22
2022-12-11T05:16:13.427Z,-1.18
2022-12-11T05:18:41.383Z,-1.17
2022-12-11T05:21:11.242Z,-1.18
2022-12-11T05:23:39.443Z,-1.32
2022-12-11T05:26:10.035Z,-1.27
2022-12-11T05:28:39.350Z,-1.23
2022-12-11T05:31:09.525Z,-1.35
2022-12-11T05:33:37.165Z,-1.54
2022-12-11T05:36:05.411Z,-1.40
2022-12-11T05:38:33.320Z,-1.31
2022-12-11T05:41:02.557Z,-1.37
2022-12-11T05:43:33.955Z,-1.35
2022-12-11T05:46:07.013Z,-1.25
2022-12-11T05:48:34.813Z,-1.28
2022-12-11T05:51:03.602Z,-1.31
2022-12-11T05:53:31.915Z,-1.26
2022-12-11T05:56:02.950Z,-1.17
2022-12-11T05:58:31.996Z,-1.17
2022-12-11T06:00:59.777Z,-1.18
2022-12-11T06:03:27.418Z,-1.28
2022-12-11T06:05:55.143Z,-1.37
2022-12-11T06:08:22.736Z,-1.23
2022-12-11T06:10:51.342Z,-1.16
2022-12-11T06:13:19.019Z,-1.25
2022-12-11T06:15:47.903Z,-1.51
2022-12-11T06:18:15.399Z,-1.71
2022-12-11T06:20:42.946Z,-1.79
2022-12-11T06:23:10.860Z,-1.75
2022-12-11T06:25:39.844Z,-1.74
2022-12-11T06:28:07.503Z,-1.60
2022-12-11T06:30:38.997Z,-1.60
2022-12-11T06:33:08.434Z,-1.73
2022-12-11T06:35:41.774Z,-1.73
2022-12-11T06:38:10.434Z,-1.84
2022-12-11T06:40:38.122Z,-1.79
2022-12-11T06:43:05.632Z,-1.80
2022-12-11T06:45:33.258Z,-1.78
2022-12-11T06:48:00.864Z,-1.92
2022-12-11T06:50:29.746Z,-1.98
2022-12-11T06:52:57.291Z,-2.10
2022-12-11T06:55:24.791Z,-2.23
2022-12-11T06:57:52.296Z,-2.15
2022-12-11T07:00:19.885Z,-2.26
2022-12-11T07:02:47.458Z,-2.33
2022-12-11T07:05:15.002Z,-2.22
2022-12-11T07:07:43.900Z,-2.37
2022-12-11T07:10:11.839Z,-2.38
2022-12-11T07:12:39.399Z,-2.47
2022-12-11T07:15:07.991Z,-2.54
2022-12-11T07:17:35.835Z,-2.48
2022-12-11T07:20:03.807Z,-2.55
2022-12-11T07:22:31.314Z,-2.49
2022-12-11T07:25:00.180Z,-2.47
2022-12-11T07:27:28.257Z,-2.52
2022-12-11T07:29:55.962Z,-2.56
2022-12-11T07:32:23.653Z,-2.63
2022-12-11T07:34:52.108Z,-2.62
2022-12-11T07:37:19.823Z,-2.65
2022-12-11T07:39:48.910Z,-2.72
2022-12-11T07:42:17.852Z,-2.73
2022-12-11T07:44:45.399Z,-2.82
2022-12-11T07:47:13.111Z,-2.82
2022-12-11T07:49:44.366Z,-2.80
2022-12-11T07:52:11.923Z,-2.83
2022-12-11T07:54:39.627Z,-2.84
2022-12-11T07:57:13.929Z,-2.79
2022-12-11T07:59:42.875Z,-2.85
2022-12-11T08:02:11.089Z,-2.86
2022-12-11T08:04:38.866Z,-2.86
2022-12-11T08:07:06.375Z,-2.85
2022-12-11T08:09:33.923Z,-2.80
2022-12-11T08:12:01.427Z,-2.82
2022-12-11T08:14:28.922Z,-2.79
2022-12-11T08:17:00.035Z,-2.80
2022-12-11T08:19:27.567Z,-2.75
2022-12-11T08:21:55.105Z,-2.75
2022-12-11T08:24:22.645Z,-2.74
2022-12-11T08:26:50.149Z,-2.71
2022-12-11T08:29:17.690Z,-2.67
2022-12-11T08:31:45.253Z,-2.69
2022-12-11T08:34:14.264Z,-2.70
2022-12-11T08:36:42.425Z,-2.81
2022-12-11T08:39:09.965Z,-2.68
2022-12-11T08:41:38.583Z,-2.70
2022-12-11T08:44:07.085Z,-2.72
2022-12-11T08:46:35.985Z,-2.71
2022-12-11T08:49:03.740Z,-2.55
2022-12-11T08:51:32.820Z,-2.48
2022-12-11T08:54:01.580Z,-2.44
2022-12-11T08:56:30.328Z,-2.34
2022-12-11T08:59:00.523Z,-2.22
2022-12-11T09:01:29.342Z,-2.20
2022-12-11T09:03:57.832Z,-1.94
2022-12-11T09:06:28.174Z,-1.76
2022-12-11T09:08:59.747Z,-1.69
2022-12-11T09:11:29.722Z,-1.67
2022-12-11T09:13:59.845Z,-1.64
2022-12-11T09:16:30.237Z,-1.69
2022-12-11T09:18:59.762Z,-1.59
2022-12-11T09:21:29.578Z,-1.58
2022-12-11T09:24:00.006Z,-1.45
2022-12-11T09:26:30.023Z,-1.29
2022-12-11T09:28:58.348Z,-1.19
2022-12-11T09:31:27.818Z,-1.18
2022-12-11T09:33:57.295Z,-1.07
2022-12-11T09:36:25.810Z,-1.04
2022-12-11T09:38:53.905Z,-0.87
2022-12-11T09:41:35.862Z,-0.77
2022-12-11T09:44:17.214Z,-0.57
2022-12-11T09:46:46.077Z,-0.51
2022-12-11T09:49:24.295Z,-0.41
2022-12-11T09:52:03.266Z,-0.34
2022-12-11T09:54:30.922Z,-0.27
2022-12-11T09:57:10.398Z,-0.22
2022-12-11T09:59:49.439Z,-0.20
2022-12-11T10:02:31.193Z,-0.06
2022-12-11T10:05:11.900Z,-0.05
2022-12-11T10:07:49.489Z,-0.02
2022-12-11T10:10:27.518Z,0.15
2022-12-11T10:13:04.204Z,0.37
2022-12-11T10:15:38.060Z,0.40
2022-12-11T10:18:10.731Z,0.59
2022-12-11T10:20:41.039Z,0.63
2022-12-11T10:23:11.097Z,0.67
2022-12-11T10:25:42.722Z,0.79
2022-12-11T10:28:14.538Z,0.86
2022-12-11T10:30:48.886Z,0.87
2022-12-11T10:33:22.584Z,0.73
2022-12-11T10:35:52.583Z,0.69
2022-12-11T10:38:26.245Z,0.74
2022-12-11T10:40:56.283Z,0.77
2022-12-11T10:43:35.373Z,0.78
2022-12-11T10:46:03.326Z,0.72
2022-12-11T10:48:30.932Z,0.64
2022-12-11T10:51:02.035Z,0.68
2022-12-11T10:53:30.061Z,0.76
2022-12-11T10:55:59.025Z,0.73
2022-12-11T10:58:29.160Z,0.55
2022-12-11T11:01:15.179Z,0.58
2022-12-11T11:03:54.647Z,0.54
2022-12-11T11:06:23.966Z,0.46
2022-12-11T11:08:53.761Z,0.43
2022-12-11T11:11:25.411Z,0.31
2022-12-11T11:13:53.265Z,0.25
2022-12-11T11:16:23.459Z,0.25
2022-12-11T11:18:54.322Z,0.30
2022-12-11T11:21:24.485Z,0.45
2022-12-11T11:23:53.615Z,0.37
2022-12-11T11:26:22.938Z,0.19
2022-12-11T11:28:53.609Z,0.34
2022-12-11T11:31:31.580Z,0.35
2022-12-11T11:34:03.104Z,0.44
2022-12-11T11:36:32.873Z,0.47
2022-12-11T11:39:21.359Z,0.53
2022-12-11T11:41:55.089Z,0.50
2022-12-11T11:44:26.393Z,0.63
2022-12-11T11:46:59.949Z,0.69
2022-12-11T11:49:45.447Z,0.73
2022-12-11T11:52:18.571Z,0.89
2022-12-11T11:54:51.852Z,0.97
2022-12-11T11:57:24.342Z,1.13
2022-12-11T11:59:56.440Z,0.94
2022-12-11T12:02:25.532Z,1.05
2022-12-11T12:04:53.207Z,1.20
2022-12-11T12:07:35.878Z,1.49
2022-12-11T12:10:15.610Z,1.16
2022-12-11T12:12:50.192Z,1.52
2022-12-11T12:15:36.353Z,1.67
2022-12-11T12:18:16.416Z,1.82
2022-12-11T12:20:49.019Z,1.81
2022-12-11T12:23:43.695Z,1.75
2022-12-11T12:26:18.048Z,1.77
2022-12-11T12:28:53.772Z,1.95
2022-12-11T12:31:36.761Z,2.00
2022-12-11T12:34:11.451Z,2.01
2022-12-11T12:36:46.549Z,1.86
2022-12-11T12:39:22.738Z,1.85
2022-12-11T12:42:01.259Z,1.67
2022-12-11T12:44:38.227Z,1.64
2022-12-11T12:47:12.910Z,1.77
2022-12-11T12:49:44.369Z,2.01
2022-12-11T12:52:16.637Z,2.12
2022-12-11T12:55:07.401Z,2.35
2022-12-11T12:57:37.023Z,2.22
2022-12-11T13:00:12.578Z,2.16
2022-12-11T13:02:50.794Z,2.05
2022-12-11T13:05:25.187Z,1.90
2022-12-11T13:07:55.533Z,1.55
2022-12-11T13:10:29.459Z,1.54
2022-12-11T13:12:57.567Z,1.41
2022-12-11T13:15:28.295Z,1.44
2022-12-11T13:17:56.168Z,1.45
2022-12-11T13:20:27.058Z,1.37
2022-12-11T13:22:57.699Z,1.27
2022-12-11T13:25:31.894Z,1.33
2022-12-11T13:28:07.430Z,1.28
2022-12-11T13:30:35.623Z,1.29
2022-12-11T13:33:06.999Z,1.17
2022-12-11T13:35:36.328Z,0.94
2022-12-11T13:38:09.159Z,0.91
2022-12-11T13:40:41.973Z,0.95
2022-12-11T13:43:19.302Z,1.00
2022-12-11T13:45:50.389Z,1.03
2022-12-11T13:48:23.759Z,0.86
2022-12-11T13:50:54.182Z,0.91
2022-12-11T13:53:22.681Z,0.74
2022-12-11T13:55:57.789Z,0.74
2022-12-11T13:58:25.962Z,0.70
2022-12-11T14:01:05.419Z,0.69
2022-12-11T14:03:33.894Z,0.76
2022-12-11T14:06:04.189Z,0.41
2022-12-11T14:08:35.393Z,0.60
2022-12-11T14:11:03.447Z,0.66
2022-12-11T14:13:34.974Z,0.43
2022-12-11T14:16:02.840Z,0.26
2022-12-11T14:18:33.743Z,0.27
2022-12-11T14:21:04.852Z,0.36
2022-12-11T14:23:33.809Z,0.39
2022-12-11T14:26:03.667Z,0.45
2022-12-11T14:28:37.990Z,0.32
2022-12-11T14:31:07.710Z,0.24
2022-12-11T14:33:41.514Z,0.27
2022-12-11T14:36:11.353Z,0.33
2022-12-11T14:38:44.235Z,0.37
2022-12-11T14:41:17.848Z,0.23
2022-12-11T14:43:49.163Z,0.11
2022-12-11T14:46:19.427Z,0.08
2022-12-11T14:48:56.063Z,0.07
2022-12-11T14:51:31.560Z,0.06
2022-12-11T14:53:59.662Z,0.05
2022-12-11T14:56:30.555Z,-0.03
2022-12-11T14:59:03.393Z,-0.15
2022-12-11T15:01:32.854Z,0.02
2022-12-11T15:04:06.336Z,0.09
2022-12-11T15:06:43.429Z,0.14
2022-12-11T15:09:18.766Z,0.09
2022-12-11T15:11:47.823Z,0.17
2022-12-11T15:14:17.750Z,0.09
2022-12-11T15:16:45.548Z,-0.02
2022-12-11T15:19:20.934Z,0.08
2022-12-11T15:21:50.316Z,0.09
2022-12-11T15:24:28.331Z,0.07
2022-12-11T15:27:00.924Z,0.18
2022-12-11T15:29:34.107Z,0.18
2022-12-11T15:32:04.708Z,0.23
2022-12-11T15:34:36.260Z,0.13
2022-12-11T15:37:05.209Z,0.05
2022-12-11T15:39:32.746Z,0.20
2022-12-11T15:42:00.291Z,0.27
2022-12-11T15:44:27.861Z,0.06
2022-12-11T15:46:55.511Z,0.11
2022-12-11T15:49:24.488Z,0.19
2022-12-11T15:51:52.539Z,0.18
2022-12-11T15:54:21.396Z,0.12
2022-12-11T15:56:48.968Z,0.05
2022-12-11T15:59:16.608Z,-0.01
2022-12-11T16:01:44.768Z,0.00
2022-12-11T16:04:12.488Z,-0.04
2022-12-11T16:06:45.122Z,-0.03
2022-12-11T16:09:12.745Z,-0.05
2022-12-11T16:11:41.574Z,-0.03
2022-12-11T16:14:09.164Z,-0.07
2022-12-11T16:16:36.675Z,-0.16
2022-12-11T16:19:04.171Z,-0.08
2022-12-11T16:21:31.741Z,-0.13
2022-12-11T16:23:59.231Z,-0.11
2022-12-11T16:26:27.150Z,-0.05
2022-12-11T16:28:56.017Z,-0.02
2022-12-11T16:31:23.570Z,-0.13
2022-12-11T16:33:51.168Z,-0.15
2022-12-11T16:36:20.890Z,-0.17
2022-12-11T16:38:53.555Z,-0.25
2022-12-11T16:41:22.676Z,-0.20
2022-12-11T16:43:50.508Z,-0.24
2022-12-11T16:46:20.257Z,-0.36
2022-12-11T16:48:48.063Z,-0.23
2022-12-11T16:51:15.839Z,-0.24
2022-12-11T16:53:43.357Z,-0.21
2022-12-11T16:56:10.927Z,-0.29
2022-12-11T16:58:38.526Z,-0.35
2022-12-11T17:01:11.969Z,-0.43
2022-12-11T17:03:41.831Z,-0.51
2022-12-11T17:06:10.868Z,-0.60
2022-12-11T17:08:38.860Z,-0.64
2022-12-11T17:11:07.184Z,-0.69
2022-12-11T17:13:36.214Z,-0.56
2022-12-11T17:16:06.171Z,-0.59
2022-12-11T17:18:33.933Z,-0.58
2022-12-11T17:21:06.668Z,-0.60
2022-12-11T17:23:34.393Z,-0.62
2022-12-11T17:26:02.477Z,-0.50
2022-12-11T17:28:30.807Z,-0.47
2022-12-11T17:30:59.178Z,-0.51
2022-12-11T17:33:26.806Z,-0.51
2022-12-11T17:35:54.685Z,-0.36
2022-12-11T17:38:23.569Z,-0.41
2022-12-11T17:40:51.131Z,-0.32
2022-12-11T17:43:18.716Z,-0.32
2022-12-11T17:45:49.333Z,-0.34
2022-12-11T17:48:17.081Z,-0.43
2022-12-11T17:50:46.538Z,-0.62
2022-12-11T17:53:15.911Z,-0.54
2022-12-11T17:55:45.777Z,-0.46
2022-12-11T17:58:15.010Z,-0.40
2022-12-11T18:00:44.412Z,-0.49
2022-12-11T18:03:12.966Z,-0.54
2022-12-11T18:05:42.810Z,-0.64
2022-12-11T18:08:13.431Z,-0.66
2022-12-11T18:10:41.375Z,-0.56
2022-12-11T18:13:10.295Z,-0.58
2022-12-11T18:15:38.122Z,-0.60
2022-12-11T18:18:06.130Z,-0.52
2022-12-11T18:20:35.141Z,-0.52
2022-12-11T18:23:03.011Z,-0.48
2022-12-11T18:25:30.642Z,-0.58
2022-12-11T18:27:59.565Z,-0.72
2022-12-11T18:30:29.220Z,-0.80
2022-12-11T18:32:56.846Z,-0.89
2022-12-11T18:35:25.315Z,-0.90
2022-12-11T18:37:52.891Z,-0.89
2022-12-11T18:40:20.718Z,-0.71
2022-12-11T18:42:48.247Z,-0.70
2022-12-11T18:45:15.937Z,-0.62
2022-12-11T18:47:44.965Z,-0.73
2022-12-11T18:50:12.590Z,-0.85
2022-12-11T18:52:40.155Z,-0.78
2022-12-11T18:55:08.426Z,-0.85
2022-12-11T18:57:36.033Z,-0.94
2022-12-11T19:00:07.323Z,-1.04
2022-12-11T19:02:35.096Z,-0.95
2022-12-11T19:05:04.391Z,-0.95
2022-12-11T19:07:32.314Z,-1.04
2022-12-11T19:09:59.880Z,-1.06
2022-12-11T19:12:27.394Z,-1.09
2022-12-11T19:14:55.062Z,-1.01
2022-12-11T19:17:22.642Z,-1.05
2022-12-11T19:19:50.301Z,-1.00
2022-12-11T19:22:19.255Z,-0.95
2022-12-11T19:24:46.774Z,-1.06
2022-12-11T19:27:14.352Z,-1.13
2022-12-11T19:29:41.934Z,-1.01
2022-12-11T19:32:09.595Z,-1.00
2022-12-11T19:34:38.351Z,-0.92
2022-12-11T19:37:06.222Z,-0.76
2022-12-11T19:39:35.371Z,-0.71
2022-12-11T19:42:02.879Z,-0.77
2022-12-11T19:44:30.384Z,-0.89
2022-12-11T19:46:58.037Z,-0.70
2022-12-11T19:49:25.635Z,-0.60
2022-12-11T19:51:53.189Z,-0.67
2022-12-11T19:54:20.773Z,-0.76
2022-12-11T19:56:49.681Z,-0.77
2022-12-11T19:59:18.502Z,-0.71
2022-12-11T20:01:47.964Z,-0.67
2022-12-11T20:04:17.422Z,-0.77
2022-12-11T20:06:47.178Z,-0.79
2022-12-11T20:09:15.437Z,-0.83
2022-12-11T20:11:45.264Z,-0.93
2022-12-11T20:14:21.176Z,-0.85
2022-12-11T20:19:36.498Z,-0.94
2022-12-11T20:22:04.048Z,-0.91
2022-12-11T20:24:31.548Z,-0.81
2022-12-11T20:26:59.050Z,-0.74
2022-12-11T20:29:28.005Z,-0.68
2022-12-11T20:31:55.776Z,-0.64
2022-12-11T20:34:23.360Z,-0.67
2022-12-11T20:36:52.665Z,-0.92
2022-12-11T20:39:20.486Z,-1.09
2022-12-11T20:41:48.179Z,-0.97
2022-12-11T20:44:15.882Z,-0.92
2022-12-11T20:46:44.745Z,-0.80
2022-12-11T20:49:13.094Z,-0.72
2022-12-11T20:51:41.805Z,-0.68
2022-12-11T20:54:09.585Z,-0.70
2022-12-11T20:56:37.149Z,-0.61
2022-12-11T20:59:05.113Z,-0.63
2022-12-11T21:01:34.752Z,-0.67
2022-12-11T21:04:03.748Z,-0.68
2022-12-11T21:06:33.998Z,-0.64
2022-12-11T21:09:03.667Z,-0.66
2022-12-11T21:11:31.612Z,-0.71
2022-12-11T21:13:59.221Z,-0.62
2022-12-11T21:16:27.221Z,-0.64
2022-12-11T21:18:55.731Z,-0.67
2022-12-11T21:21:24.632Z,-0.67
2022-12-11T21:23:52.266Z,-0.76
2022-12-11T21:26:20.017Z,-0.79
2022-12-11T21:28:47.631Z,-0.79
2022-12-11T21:31:18.041Z,-0.80
2022-12-11T21:33:46.239Z,-0.76
2022-12-11T21:36:15.540Z,-0.74
2022-12-11T21:38:45.771Z,-0.79
2022-12-11T21:41:15.840Z,-0.69
2022-12-11T21:44:14.608Z,-0.88
2022-12-11T21:46:32.025Z,-0.91
2022-12-11T21:49:00.520Z,-0.91
2022-12-11T21:51:36.133Z,-0.96
2022-12-11T21:54:07.356Z,-0.93
2022-12-11T21:56:34.960Z,-0.96
2022-12-11T21:59:02.682Z,-1.02
2022-12-11T22:01:34.741Z,-1.00
2022-12-11T22:04:02.962Z,-0.94
2022-12-11T22:06:30.565Z,-0.99
2022-12-11T22:08:58.352Z,-1.02
2022-12-11T22:11:29.258Z,-0.95
2022-12-11T22:13:57.678Z,-1.00
2022-12-11T22:16:25.930Z,-1.05
2022-12-11T22:18:53.686Z,-0.98
2022-12-11T22:21:21.425Z,-1.05
2022-12-11T22:23:49.120Z,-1.06
2022-12-11T22:26:18.802Z,-1.12
2022-12-11T22:28:47.789Z,-1.14
2022-12-11T22:31:19.607Z,-1.13
2022-12-11T22:33:47.296Z,-1.06
2022-12-11T22:36:14.896Z,-0.81
2022-12-11T22:38:42.395Z,-0.73
2022-12-11T22:41:11.271Z,-0.74
2022-12-11T22:43:38.862Z,-0.71
2022-12-11T22:46:07.846Z,-0.80
2022-12-11T22:48:35.451Z,-0.82
2022-12-11T22:51:07.265Z,-0.78
2022-12-11T22:53:34.854Z,-0.82
2022-12-11T22:56:05.850Z,-0.84
2022-12-11T22:58:34.076Z,-0.79
2022-12-11T23:01:01.855Z,-0.75
2022-12-11T23:03:30.870Z,-0.81
2022-12-11T23:06:03.347Z,-0.74
2022-12-11T23:08:33.016Z,-0.84
2022-12-11T23:11:00.731Z,-0.93
2022-12-11T23:13:28.345Z,-1.02
2022-12-11T23:15:55.902Z,-1.01
2022-12-11T23:18:24.510Z,-1.12
2022-12-11T23:20:53.524Z,-1.18
2022-12-11T23:23:21.105Z,-1.32
2022-12-11T23:25:48.648Z,-1.41
2022-12-11T23:28:16.254Z,-1.44
2022-12-11T23:30:43.866Z,-1.52
2022-12-11T23:33:11.531Z,-1.49
2022-12-11T23:35:39.051Z,-1.47
2022-12-11T23:38:08.167Z,-1.58
2022-12-11T23:40:35.850Z,-1.54
2022-12-11T23:43:03.362Z,-1.52
2022-12-11T23:45:30.934Z,-1.59
2022-12-11T23:47:58.678Z,-1.43
2022-12-11T23:50:26.745Z,-1.36
2022-12-11T23:52:54.300Z,-1.39
2022-12-11T23:55:25.285Z,-1.37
2022-12-11T23:57:52.862Z,-1.34
